Time;durP1;ratioP1;P1;durP2;ratioP2;P2;SDS_P1;SDS_P2;PMS_P1;PMS_P2;Temp;Humidity;BMP_temperature;BMP_pressure;BME280_temperature;BME280_humidity;BME280_pressure;Samples;Min_cycle;Max_cycle;Signal;HPM_P1;HPM_P2
2022/05/04 00:00:25;;;;;;;4.50;1.60;;;16.70;99.90;;;;;;5068987;28;20462;-82
2022/05/04 00:02:52;;;;;;;4.40;1.40;;;16.90;99.90;;;;;;5068986;28;20453;-82
2022/05/04 00:05:20;;;;;;;2.73;1.33;;;17.00;99.90;;;;;;5068680;28;20402;-82
2022/05/04 00:07:47;;;;;;;2.28;1.40;;;17.20;99.90;;;;;;5068796;28;20472;-82
2022/05/04 00:10:14;;;;;;;6.32;1.58;;;17.20;99.90;;;;;;5068802;28;20378;-82
2022/05/04 00:12:41;;;;;;;3.78;1.38;;;17.40;99.90;;;;;;5067428;28;20435;-82
2022/05/04 00:15:09;;;;;;;4.60;1.30;;;17.50;99.90;;;;;;5068846;28;20382;-82
2022/05/04 00:17:36;;;;;;;5.03;1.48;;;17.60;99.90;;;;;;5068871;28;20458;-82
2022/05/04 00:20:03;;;;;;;4.68;1.20;;;17.70;99.90;;;;;;5069025;28;20397;-82
2022/05/04 00:22:30;;;;;;;4.00;1.40;;;17.80;99.90;;;;;;5068538;28;20418;-82
2022/05/04 00:24:58;;;;;;;2.90;1.40;;;17.90;99.90;;;;;;5068227;28;20571;-82
2022/05/04 00:27:25;;;;;;;2.22;1.30;;;18.00;99.90;;;;;;5068284;28;20737;-82
2022/05/04 00:29:52;;;;;;;3.83;1.10;;;18.00;99.90;;;;;;5068396;28;20384;-83
2022/05/04 00:32:19;;;;;;;3.53;1.40;;;18.10;99.90;;;;;;5067921;28;20384;-83
2022/05/04 00:34:47;;;;;;;3.38;1.40;;;18.20;99.90;;;;;;5068229;28;20832;-83
2022/05/04 00:37:14;;;;;;;3.72;1.30;;;18.30;99.90;;;;;;5068341;28;20428;-83
2022/05/04 00:39:41;;;;;;;4.97;1.40;;;18.40;99.90;;;;;;5068322;28;20944;-82
2022/05/04 00:42:09;;;;;;;3.63;1.60;;;18.60;99.90;;;;;;5068131;28;20467;-83
2022/05/04 00:44:36;;;;;;;2.20;1.30;;;18.90;99.90;;;;;;5066812;28;20414;-83
2022/05/04 00:47:03;;;;;;;4.07;1.40;;;19.00;99.90;;;;;;5067985;28;20376;-83
2022/05/04 00:49:30;;;;;;;3.08;1.30;;;19.10;99.90;;;;;;5068144;28;20378;-83
2022/05/04 00:51:58;;;;;;;3.63;1.30;;;19.20;99.90;;;;;;5067890;28;20425;-82
2022/05/04 00:54:25;;;;;;;5.15;2.70;;;19.30;99.90;;;;;;5067747;28;20385;-83
2022/05/04 00:56:52;;;;;;;4.85;1.73;;;19.30;99.90;;;;;;5067727;28;20393;-83
2022/05/04 00:59:21;;;;;;;6.23;1.60;;;19.50;99.90;;;;;;5067838;28;20374;-83
2022/05/04 01:01:49;;;;;;;3.40;1.40;;;19.60;99.90;;;;;;5067800;28;20370;-83
2022/05/04 01:04:18;;;;;;;2.97;1.30;;;19.60;99.90;;;;;;5067770;28;20396;-82
2022/05/04 01:06:46;;;;;;;2.72;1.30;;;19.70;99.90;;;;;;5067379;28;20386;-83
2022/05/04 01:09:13;;;;;;;2.85;1.13;;;19.70;99.90;;;;;;5067845;28;20846;-83
2022/05/04 01:11:41;;;;;;;4.90;1.30;;;19.90;99.90;;;;;;5067554;28;20374;-83
2022/05/04 01:14:12;;;;;;;2.50;1.13;;;20.10;99.90;;;;;;5067465;28;20414;-83
2022/05/04 01:16:42;;;;;;;1.85;1.10;;;20.30;99.90;;;;;;5067501;28;20370;-83
2022/05/04 01:19:10;;;;;;;2.63;1.10;;;20.70;99.90;;;;;;5065545;28;20382;-84
2022/05/04 01:21:37;;;;;;;2.30;0.93;;;21.00;99.90;;;;;;5067556;28;20965;-82
2022/05/04 01:24:05;;;;;;;2.80;1.10;;;21.30;99.90;;;;;;5066982;28;20452;-82
2022/05/04 01:26:32;;;;;;;2.93;1.00;;;22.00;99.90;;;;;;5067166;28;20405;-83
2022/05/04 01:28:59;;;;;;;2.03;0.95;;;22.70;99.90;;;;;;5067287;28;20370;-83
2022/05/04 01:31:26;;;;;;;3.95;1.10;;;23.00;99.90;;;;;;5067208;28;20422;-82
2022/05/04 01:33:53;;;;;;;2.70;1.40;;;23.20;99.40;;;;;;5067101;28;20370;-83
2022/05/04 01:36:20;;;;;;;1.90;0.90;;;23.20;98.90;;;;;;5067097;28;20432;-83
2022/05/04 01:38:50;;;;;;;2.60;1.10;;;23.40;98.40;;;;;;5067147;28;20496;-83
2022/05/04 01:44:02;;;;;;;2.90;1.10;;;23.80;96.40;;;;;;5067044;28;20861;-83
2022/05/04 01:46:29;;;;;;;4.53;1.17;;;24.00;96.70;;;;;;5066604;28;20462;-83
2022/05/04 01:48:56;;;;;;;2.50;1.05;;;24.70;94.70;;;;;;5067050;28;20385;-83
2022/05/04 01:51:23;;;;;;;2.67;1.20;;;25.20;91.30;;;;;;5067062;28;20382;-82
2022/05/04 01:53:50;;;;;;;3.90;1.00;;;25.10;91.40;;;;;;5067125;28;20414;-82
2022/05/04 01:56:17;;;;;;;2.00;1.08;;;24.90;92.50;;;;;;5066917;28;20378;-83
2022/05/04 01:58:43;;;;;;;3.25;1.05;;;24.70;92.10;;;;;;5066857;28;20369;-83
2022/05/04 02:01:10;;;;;;;3.38;1.15;;;24.50;92.10;;;;;;5065323;28;20386;-83
2022/05/04 02:03:39;;;;;;;2.97;1.00;;;24.40;93.00;;;;;;5067389;28;20383;-82
2022/05/04 02:06:06;;;;;;;3.53;1.00;;;24.90;91.30;;;;;;5068589;28;20409;-81
2022/05/04 02:08:33;;;;;;;3.03;1.00;;;25.10;90.80;;;;;;5068214;28;20796;-81
2022/05/04 02:11:01;;;;;;;2.80;0.90;;;25.20;91.00;;;;;;5067670;28;20382;-81
2022/05/04 02:13:28;;;;;;;2.47;0.93;;;25.10;90.70;;;;;;5067559;28;20370;-81
2022/05/04 02:15:55;;;;;;;1.67;0.90;;;25.00;90.30;;;;;;5066690;28;20382;-82
2022/05/04 02:18:23;;;;;;;1.97;0.90;;;24.70;90.80;;;;;;5066649;28;20365;-83
2022/05/04 02:20:50;;;;;;;2.78;1.00;;;24.60;90.90;;;;;;5066762;28;20420;-82
2022/05/04 02:23:17;;;;;;;1.98;0.80;;;24.40;91.30;;;;;;5066577;28;20386;-83
2022/05/04 02:25:44;;;;;;;2.20;0.90;;;24.20;91.50;;;;;;5066611;28;20397;-83
2022/05/04 02:28:10;;;;;;;2.40;0.85;;;24.00;91.70;;;;;;5066541;28;20790;-83
2022/05/04 02:30:37;;;;;;;2.30;1.02;;;23.90;91.60;;;;;;5066681;28;20374;-83
2022/05/04 02:33:04;;;;;;;3.00;0.80;;;23.80;91.80;;;;;;5070857;28;20381;-85
2022/05/04 02:38:18;;;;;;;3.28;0.98;;;23.90;92.80;;;;;;5071101;28;20455;-84
2022/05/04 02:40:45;;;;;;;3.42;1.00;;;23.80;92.20;;;;;;5070534;28;20382;-86
2022/05/04 02:43:12;;;;;;;1.87;0.90;;;23.80;91.90;;;;;;5070576;28;20373;-83
2022/05/04 02:45:39;;;;;;;1.20;0.80;;;23.80;90.80;;;;;;5070507;28;20408;-84
2022/05/04 02:48:07;;;;;;;1.85;0.80;;;23.90;91.30;;;;;;5070553;28;20482;-84
2022/05/04 02:50:35;;;;;;;2.80;1.00;;;24.20;90.10;;;;;;5070578;28;20862;-84
2022/05/04 02:53:02;;;;;;;2.25;0.80;;;24.20;87.80;;;;;;5070423;28;20891;-84
2022/05/04 02:55:29;;;;;;;4.28;1.00;;;24.20;88.20;;;;;;5070522;28;20783;-84
2022/05/04 02:57:56;;;;;;;1.55;0.90;;;24.50;87.20;;;;;;5070383;28;20374;-84
2022/05/04 03:00:25;;;;;;;3.22;0.98;;;24.60;86.80;;;;;;5069015;28;20389;-84
2022/05/04 03:02:53;;;;;;;1.75;0.90;;;24.80;84.30;;;;;;5070210;28;20370;-84
2022/05/04 03:05:20;;;;;;;2.78;1.00;;;25.40;84.50;;;;;;5068456;28;20435;-84
2022/05/04 03:07:47;;;;;;;1.95;0.80;;;26.40;80.10;;;;;;5070218;28;20386;-83
2022/05/04 03:10:15;;;;;;;1.70;0.93;;;26.40;79.30;;;;;;5070051;28;20374;-87
2022/05/04 03:12:43;;;;;;;3.05;0.80;;;26.30;79.20;;;;;;5066795;28;20385;-85
2022/05/04 03:15:10;;;;;;;1.98;1.00;;;26.50;78.50;;;;;;5052647;28;20893;-84
2022/05/04 03:17:37;;;;;;;2.38;0.90;;;27.40;74.60;;;;;;5069730;28;20913;-84
2022/05/04 03:20:05;;;;;;;1.42;0.80;;;27.80;72.80;;;;;;5065459;28;20953;-84
2022/05/04 03:22:32;;;;;;;1.45;0.90;;;28.20;71.30;;;;;;5068001;28;20444;-84
2022/05/04 03:24:59;;;;;;;2.30;0.90;;;28.90;68.70;;;;;;5068484;28;20409;-84
2022/05/04 03:27:26;;;;;;;1.65;0.80;;;29.40;66.40;;;;;;5067365;28;20386;-84
2022/05/04 03:29:53;;;;;;;2.53;0.95;;;29.70;64.30;;;;;;5068205;28;20374;-85
2022/05/04 03:32:20;;;;;;;2.50;0.90;;;30.00;63.30;;;;;;5068501;28;20457;-85
2022/05/04 03:34:47;;;;;;;2.50;0.90;;;29.50;62.70;;;;;;5067909;28;20746;-84
2022/05/04 03:37:14;;;;;;;1.73;0.80;;;29.70;61.10;;;;;;5067916;28;20382;-84
2022/05/04 03:39:41;;;;;;;1.38;0.80;;;28.90;61.00;;;;;;5066741;28;20863;-84
2022/05/04 03:42:12;;;;;;;3.63;0.90;;;28.00;64.00;;;;;;5066363;28;21082;-85
2022/05/04 03:44:39;;;;;;;3.70;1.00;;;27.50;65.30;;;;;;5065245;28;20394;-85
2022/05/04 03:47:06;;;;;;;2.28;0.88;;;27.00;67.20;;;;;;5067972;28;20873;-86
2022/05/04 03:49:33;;;;;;;1.97;1.00;;;26.90;67.90;;;;;;5067762;28;20375;-85
2022/05/04 03:52:00;;;;;;;2.53;1.00;;;26.60;69.70;;;;;;5065496;28;20382;-85
2022/05/04 03:54:27;;;;;;;3.15;1.17;;;26.60;69.90;;;;;;5067915;28;20910;-84
2022/05/04 03:56:54;;;;;;;2.17;0.80;;;26.70;70.50;;;;;;5066338;28;20394;-87
2022/05/04 03:59:21;;;;;;;2.50;0.88;;;27.00;69.70;;;;;;5068246;28;20723;-84
2022/05/04 04:01:48;;;;;;;2.55;1.00;;;27.30;68.70;;;;;;5068803;28;20896;-85
2022/05/04 04:04:15;;;;;;;3.00;1.00;;;27.70;66.40;;;;;;5068807;28;20383;-85
2022/05/04 04:06:42;;;;;;;2.28;0.95;;;28.00;66.30;;;;;;5068858;28;20461;-84
2022/05/04 04:09:09;;;;;;;1.80;0.90;;;28.20;62.80;;;;;;5068814;28;20386;-83
2022/05/04 04:11:36;;;;;;;1.50;0.80;;;28.00;65.60;;;;;;5068733;28;20470;-83
2022/05/04 04:14:03;;;;;;;2.05;1.00;;;28.00;64.50;;;;;;5068617;28;20370;-83
2022/05/04 04:16:30;;;;;;;1.85;0.80;;;27.60;66.80;;;;;;5068271;28;20401;-84
2022/05/04 04:18:57;;;;;;;1.50;0.98;;;27.60;66.30;;;;;;5068664;28;20398;-85
2022/05/04 04:24:09;;;;;;;1.95;0.88;;;27.60;66.90;;;;;;5068469;28;21220;-82
2022/05/04 04:26:38;;;;;;;1.70;0.80;;;27.50;66.40;;;;;;5068123;28;20398;-83
2022/05/04 04:29:05;;;;;;;1.57;0.90;;;28.10;65.80;;;;;;5068508;28;20777;-85
2022/05/04 04:31:33;;;;;;;2.25;0.90;;;28.70;62.70;;;;;;5068391;28;20866;-84
2022/05/04 04:34:01;;;;;;;1.02;0.90;;;28.00;62.50;;;;;;5068406;28;20378;-84
2022/05/04 04:36:28;;;;;;;2.95;0.85;;;27.30;63.90;;;;;;5068131;28;20378;-83
2022/05/04 04:38:55;;;;;;;3.40;1.00;;;26.90;65.20;;;;;;5068365;28;20450;-83
2022/05/04 04:41:22;;;;;;;2.10;0.98;;;27.20;66.90;;;;;;5067802;28;20386;-83
2022/05/04 04:43:51;;;;;;;1.73;0.90;;;28.30;64.60;;;;;;5067046;28;20805;-84
2022/05/04 04:46:18;;;;;;;1.77;0.80;;;28.60;64.10;;;;;;5067876;28;20401;-83
2022/05/04 04:48:45;;;;;;;2.47;0.80;;;29.50;61.50;;;;;;5068412;28;20382;-84
2022/05/04 04:51:12;;;;;;;2.28;1.00;;;29.60;58.20;;;;;;5068094;28;20794;-84
2022/05/04 04:53:39;;;;;;;3.30;0.90;;;29.00;59.00;;;;;;5067132;28;20370;-84
2022/05/04 04:56:07;;;;;;;2.03;0.88;;;27.90;61.20;;;;;;5067984;28;20776;-85
2022/05/04 04:58:34;;;;;;;2.45;0.80;;;27.50;62.80;;;;;;5066008;28;20397;-83
2022/05/04 05:01:01;;;;;;;2.05;0.90;;;27.50;63.00;;;;;;5066272;28;20399;-83
2022/05/04 05:03:29;;;;;;;2.92;1.00;;;27.30;63.80;;;;;;5066156;28;20467;-84
2022/05/04 05:05:56;;;;;;;2.60;1.15;;;27.40;63.70;;;;;;5066197;28;20409;-84
2022/05/04 05:08:23;;;;;;;1.75;0.93;;;27.70;62.40;;;;;;5059505;28;20453;-87
2022/05/04 05:10:50;;;;;;;2.58;1.48;;;27.60;63.60;;;;;;5066102;28;20394;-83
2022/05/04 05:13:17;;;;;;;2.75;1.23;;;27.20;63.30;;;;;;5065557;28;20377;-87
2022/05/04 05:18:29;;;;;;;2.97;0.98;;;26.40;66.60;;;;;;5066118;28;20438;-85
2022/05/04 05:20:56;;;;;;;3.00;1.10;;;26.30;66.80;;;;;;5064442;28;20500;-85
2022/05/04 05:23:24;;;;;;;1.85;1.08;;;26.00;67.00;;;;;;5067423;28;20382;-86
2022/05/04 05:25:52;;;;;;;2.70;1.00;;;25.60;68.50;;;;;;5067281;28;20598;-84
2022/05/04 05:28:19;;;;;;;2.85;1.10;;;25.50;70.00;;;;;;5067608;28;20374;-88
2022/05/04 05:30:46;;;;;;;2.75;1.02;;;25.50;69.70;;;;;;5067389;28;20385;-86
2022/05/04 05:33:13;;;;;;;6.10;1.10;;;25.70;69.20;;;;;;5067148;28;20917;-87
2022/05/04 05:35:40;;;;;;;1.67;0.90;;;25.80;68.00;;;;;;5067432;28;20401;-85
2022/05/04 05:38:09;;;;;;;3.10;1.00;;;25.70;68.20;;;;;;5066418;28;20384;-87
2022/05/04 05:40:36;;;;;;;4.18;0.90;;;25.70;68.40;;;;;;5066543;28;20414;-86
2022/05/04 05:43:03;;;;;;;1.97;1.10;;;25.80;68.50;;;;;;5066718;28;20381;-87
2022/05/04 05:45:30;;;;;;;1.90;1.00;;;25.80;69.50;;;;;;5066383;28;20402;-83
2022/05/04 05:47:57;;;;;;;3.38;1.02;;;25.70;68.70;;;;;;5065506;28;20783;-85
2022/05/04 05:50:24;;;;;;;2.22;1.00;;;25.50;69.90;;;;;;5060555;28;20761;-85
2022/05/04 05:52:52;;;;;;;2.03;0.90;;;25.60;69.30;;;;;;5065022;28;20385;-83
2022/05/04 05:55:19;;;;;;;3.65;1.00;;;25.60;69.60;;;;;;5065882;28;20378;-84
2022/05/04 05:57:46;;;;;;;2.83;0.88;;;25.40;69.80;;;;;;5064419;28;20382;-84
2022/05/04 06:00:13;;;;;;;3.88;1.15;;;25.20;69.90;;;;;;5066408;28;20378;-84
2022/05/04 06:02:40;;;;;;;1.77;0.93;;;24.90;70.60;;;;;;5065279;28;20465;-84
2022/05/04 06:05:08;;;;;;;1.90;1.00;;;24.70;72.10;;;;;;5066294;28;20459;-83
2022/05/04 06:07:35;;;;;;;3.77;1.00;;;24.30;73.50;;;;;;5066729;28;20386;-84
2022/05/04 06:10:02;;;;;;;2.47;1.00;;;24.00;74.40;;;;;;5067109;28;20435;-83
2022/05/04 06:12:29;;;;;;;5.30;1.30;;;23.80;75.60;;;;;;5062350;28;20382;-85
2022/05/04 06:14:56;;;;;;;3.05;1.10;;;23.60;77.00;;;;;;5055841;28;20745;-83
2022/05/04 06:17:23;;;;;;;4.70;1.20;;;23.70;77.90;;;;;;5064402;28;21130;-84
2022/05/04 06:19:50;;;;;;;2.03;1.07;;;23.80;78.00;;;;;;5066965;28;20751;-84
2022/05/04 06:22:17;;;;;;;4.75;1.40;;;23.90;76.90;;;;;;5066285;28;20424;-83
2022/05/04 06:24:45;;;;;;;3.78;1.30;;;24.00;75.10;;;;;;5066695;28;20867;-83
2022/05/04 06:27:12;;;;;;;3.30;1.20;;;24.10;75.40;;;;;;5060286;28;20829;-83
2022/05/04 06:35:11;;;;;;;3.20;1.15;;;23.60;79.40;;;;;;5065964;28;20376;-87
2022/05/04 06:37:39;;;;;;;6.40;1.60;;;23.40;80.00;;;;;;5066373;28;20459;-83
2022/05/04 06:40:07;;;;;;;3.90;1.20;;;23.20;83.00;;;;;;5066418;28;20370;-84
2022/05/04 06:42:34;;;;;;;3.72;1.35;;;23.00;86.00;;;;;;5065945;28;20447;-85
2022/05/04 06:45:03;;;;;;;6.05;1.40;;;22.80;87.90;;;;;;5063558;28;20460;-85
2022/05/04 06:47:30;;;;;;;3.00;1.60;;;22.60;89.60;;;;;;5065047;28;20389;-83
2022/05/04 06:49:57;;;;;;;2.40;1.20;;;22.50;91.50;;;;;;5066279;28;20738;-84
2022/05/04 06:52:26;;;;;;;1.67;1.50;;;22.50;92.70;;;;;;5066791;28;20381;-86
2022/05/04 06:54:54;;;;;;;2.20;1.30;;;22.50;93.20;;;;;;5066643;28;20382;-83
2022/05/04 06:57:21;;;;;;;3.05;1.40;;;22.50;92.80;;;;;;5066337;28;20800;-86
2022/05/04 06:59:48;;;;;;;3.30;1.50;;;22.50;93.50;;;;;;5066360;28;20378;-84
2022/05/04 07:02:15;;;;;;;7.28;1.77;;;22.40;94.10;;;;;;5066162;28;20443;-84
2022/05/04 07:04:42;;;;;;;8.20;1.83;;;22.30;94.40;;;;;;5066587;28;20389;-83
2022/05/04 07:07:09;;;;;;;9.10;1.90;;;22.20;95.00;;;;;;5053418;28;20427;-85
2022/05/04 07:09:36;;;;;;;9.18;2.00;;;22.10;95.80;;;;;;5046784;28;20390;-84
2022/05/04 07:12:04;;;;;;;5.80;1.60;;;22.00;96.50;;;;;;5046917;28;20445;-84
2022/05/04 07:14:31;;;;;;;6.97;1.80;;;22.00;97.30;;;;;;5049986;28;20382;-82
2022/05/04 07:16:58;;;;;;;8.32;1.80;;;21.90;97.60;;;;;;5059439;28;20435;-84
2022/05/04 07:19:25;;;;;;;9.95;1.92;;;21.70;98.30;;;;;;5069060;28;20382;-84
2022/05/04 07:21:52;;;;;;;9.50;1.85;;;21.60;98.90;;;;;;5068093;28;20398;-83
2022/05/04 07:24:19;;;;;;;4.00;1.40;;;21.60;99.40;;;;;;5069596;28;20384;-86
2022/05/04 07:26:46;;;;;;;3.60;1.48;;;21.00;99.80;;;;;;5069885;28;20535;-85
2022/05/04 07:29:13;;;;;;;6.87;1.60;;;21.50;99.90;;;;;;5069814;28;20388;-85
2022/05/04 07:31:41;;;;;;;6.93;1.70;;;21.50;99.90;;;;;;5070711;28;20394;-84
2022/05/04 07:34:08;;;;;;;8.82;1.60;;;21.50;99.90;;;;;;5069481;28;20382;-83
2022/05/04 07:36:34;;;;;;;9.45;3.47;;;21.40;99.90;;;;;;5069087;28;20398;-82
2022/05/04 07:39:01;;;;;;;38.42;23.17;;;21.30;99.90;;;;;;5069195;28;20401;-84
2022/05/04 07:44:14;;;;;;;227.70;189.07;;;21.10;99.90;;;;;;5069544;28;20373;-82
2022/05/04 07:46:44;;;;;;;314.50;274.63;;;21.00;99.90;;;;;;5069024;28;20397;-82
2022/05/04 07:49:11;;;;;;;145.90;105.10;;;20.90;99.90;;;;;;5069186;28;20484;-84
2022/05/04 07:51:41;;;;;;;43.83;28.42;;;20.80;99.90;;;;;;5069286;28;20373;-84
2022/05/04 07:54:08;;;;;;;32.15;19.77;;;20.70;99.90;;;;;;5069676;28;20881;-83
2022/05/04 07:56:35;;;;;;;20.88;11.65;;;20.60;99.90;;;;;;5068613;28;20473;-85
2022/05/04 07:59:02;;;;;;;24.73;12.70;;;20.50;99.90;;;;;;5069532;28;20430;-83
2022/05/04 08:04:17;;;;;;;30.50;14.85;;;20.40;99.90;;;;;;5069303;28;20389;-85
2022/05/04 08:06:44;;;;;;;34.50;12.23;;;20.30;99.90;;;;;;5069233;28;20401;-87
2022/05/04 08:09:11;;;;;;;25.42;8.38;;;20.40;99.90;;;;;;5067455;28;20882;-85
2022/05/04 08:11:38;;;;;;;22.98;5.80;;;20.50;99.90;;;;;;5068240;28;20390;-84
2022/05/04 08:14:06;;;;;;;22.23;7.25;;;20.40;99.90;;;;;;5068444;28;20378;-84
2022/05/04 08:16:33;;;;;;;23.00;7.80;;;20.30;99.90;;;;;;5069127;28;20467;-84
2022/05/04 08:19:00;;;;;;;22.15;6.57;;;20.30;99.90;;;;;;5068955;28;20378;-82
2022/05/04 08:21:28;;;;;;;17.30;6.18;;;20.30;99.90;;;;;;5069031;28;20403;-86
2022/05/04 08:23:55;;;;;;;24.70;6.55;;;20.20;99.90;;;;;;5066464;28;20487;-83
2022/05/04 08:26:22;;;;;;;11.80;5.00;;;20.20;99.90;;;;;;5068376;28;20560;-87
2022/05/04 08:28:51;;;;;;;19.20;4.20;;;20.10;99.90;;;;;;5068921;28;20366;-85
2022/05/04 08:31:19;;;;;;;10.52;3.28;;;20.10;99.90;;;;;;5068734;28;20754;-87
2022/05/04 08:33:49;;;;;;;12.40;2.83;;;20.10;99.90;;;;;;5070152;28;20409;-81
2022/05/04 08:36:17;;;;;;;12.93;2.70;;;20.10;99.90;;;;;;5069389;28;20410;-84
2022/05/04 08:38:45;;;;;;;12.82;3.67;;;20.10;99.90;;;;;;5056813;28;20384;-82
2022/05/04 08:41:11;;;;;;;8.65;2.72;;;20.10;99.90;;;;;;5059617;28;20411;-84
2022/05/04 08:43:39;;;;;;;8.30;2.70;;;20.10;99.90;;;;;;5062108;28;20768;-86
2022/05/04 08:46:10;;;;;;;10.70;3.10;;;20.00;99.90;;;;;;5068127;28;21261;-84
2022/05/04 08:48:38;;;;;;;10.95;3.65;;;20.00;99.90;;;;;;5068843;28;20370;-85
2022/05/04 08:51:06;;;;;;;11.87;3.60;;;19.90;99.90;;;;;;5068875;28;20377;-82
2022/05/04 08:53:33;;;;;;;9.90;4.28;;;19.90;99.90;;;;;;5068097;28;20384;-85
2022/05/04 08:56:05;;;;;;;9.13;4.00;;;19.80;99.90;;;;;;5068545;28;20529;-87
2022/05/04 08:58:38;;;;;;;11.17;4.10;;;19.90;99.90;;;;;;5065771;28;20452;-85
2022/05/04 09:01:05;;;;;;;10.82;3.65;;;19.80;99.90;;;;;;5068372;28;20443;-81
2022/05/04 09:03:33;;;;;;;9.67;3.50;;;19.90;99.90;;;;;;5073531;28;20458;-85
2022/05/04 09:06:00;;;;;;;9.88;2.95;;;19.80;99.90;;;;;;5086891;28;20466;-84
2022/05/04 09:08:27;;;;;;;9.88;3.95;;;19.80;99.90;;;;;;5080371;28;20378;-86
2022/05/04 09:10:54;;;;;;;7.60;2.88;;;19.80;99.90;;;;;;5079072;28;20406;-87
2022/05/04 09:13:21;;;;;;;6.93;3.03;;;19.70;99.90;;;;;;5059656;28;20942;-88
2022/05/04 09:15:51;;;;;;;10.32;3.28;;;19.60;99.90;;;;;;5060021;28;20440;-86
2022/05/04 09:18:19;;;;;;;6.68;3.10;;;19.50;99.90;;;;;;5078273;28;20392;-86
2022/05/04 09:20:58;;;;;;;10.60;3.25;;;19.40;99.90;;;;;;5078994;28;20425;-82
2022/05/04 09:23:31;;;;;;;7.03;2.97;;;19.40;99.90;;;;;;5085378;28;20425;-85
2022/05/04 09:26:01;;;;;;;9.65;4.60;;;19.30;99.90;;;;;;5079199;28;20500;-85
2022/05/04 09:28:29;;;;;;;8.43;4.35;;;19.20;99.90;;;;;;5068859;28;20397;-82
2022/05/04 09:31:04;;;;;;;13.30;4.40;;;19.10;99.90;;;;;;5073972;28;20374;-84
2022/05/04 09:33:39;;;;;;;8.25;3.63;;;19.10;99.90;;;;;;5081629;28;20404;-85
2022/05/04 09:36:06;;;;;;;16.10;3.72;;;19.00;99.90;;;;;;5097662;28;20390;-88
2022/05/04 09:47:19;;;;;;;11.90;3.63;;;19.00;99.90;;;;;;4994221;28;20591;-87
2022/05/04 09:49:53;;;;;;;9.18;3.40;;;19.00;99.90;;;;;;5004293;28;20391;-81
2022/05/04 09:52:25;;;;;;;11.50;3.70;;;19.00;99.90;;;;;;5005743;28;20393;-89
2022/05/04 09:54:53;;;;;;;9.18;3.42;;;19.00;99.90;;;;;;4994566;28;20396;-84
2022/05/04 09:57:21;;;;;;;9.30;3.25;;;19.00;99.90;;;;;;4987272;28;20436;-89
2022/05/04 09:59:49;;;;;;;7.22;3.17;;;19.00;99.90;;;;;;4990078;28;20425;-89
2022/05/04 10:02:18;;;;;;;14.90;3.40;;;19.00;99.90;;;;;;5005710;28;20394;-84
2022/05/04 10:04:48;;;;;;;15.27;4.25;;;18.90;99.90;;;;;;4999573;28;20879;-90
2022/05/04 10:07:16;;;;;;;11.40;3.50;;;19.00;99.90;;;;;;4992397;28;20482;-89
2022/05/04 10:09:44;;;;;;;13.52;3.45;;;19.00;99.90;;;;;;4994116;28;20381;-89
2022/05/04 10:12:13;;;;;;;14.45;3.72;;;19.00;99.90;;;;;;4989551;28;20452;-87
2022/05/04 10:14:43;;;;;;;13.82;3.70;;;19.00;99.90;;;;;;5020726;28;20389;-88
2022/05/04 10:17:23;;;;;;;19.25;3.97;;;19.00;99.90;;;;;;5063147;28;20390;-89
2022/05/04 10:20:06;;;;;;;16.25;3.53;;;19.10;99.90;;;;;;5067578;28;20374;-85
2022/05/04 10:22:42;;;;;;;11.75;3.70;;;19.10;99.90;;;;;;5066870;28;20397;-90
2022/05/04 10:25:09;;;;;;;10.85;3.40;;;19.10;99.90;;;;;;5066552;28;20408;-87
2022/05/04 10:27:46;;;;;;;12.73;3.40;;;19.10;99.90;;;;;;5066677;28;20892;-83
2022/05/04 10:30:34;;;;;;;12.75;3.45;;;19.10;99.90;;;;;;5066930;28;20389;-88
2022/05/04 10:33:08;;;;;;;15.35;3.60;;;19.10;99.90;;;;;;5066922;28;20742;-87
2022/05/04 10:35:47;;;;;;;9.07;3.22;;;19.10;99.90;;;;;;5066702;28;20439;-87
2022/05/04 10:38:27;;;;;;;10.55;3.35;;;19.00;99.90;;;;;;5066922;28;20460;-84
2022/05/04 10:41:00;;;;;;;14.20;3.40;;;19.00;99.90;;;;;;5067526;28;20386;-88
2022/05/04 10:43:36;;;;;;;16.10;4.22;;;19.00;99.90;;;;;;5067124;28;20378;-88
2022/05/04 10:46:11;;;;;;;10.07;3.55;;;18.90;99.90;;;;;;5067015;28;20444;-82
2022/05/04 10:48:51;;;;;;;11.40;4.10;;;18.90;99.90;;;;;;5063903;28;20465;-81
2022/05/04 10:51:24;;;;;;;16.83;4.40;;;18.80;99.90;;;;;;5066958;28;20436;-88
2022/05/04 10:54:17;;;;;;;17.83;4.53;;;18.90;99.90;;;;;;5069924;28;20890;-82
2022/05/04 10:56:45;;;;;;;15.77;4.53;;;18.80;99.90;;;;;;5069662;28;20393;-89
2022/05/04 10:59:24;;;;;;;19.77;4.53;;;18.80;99.90;;;;;;5070486;28;20427;-89
2022/05/04 11:01:55;;;;;;;18.35;5.10;;;18.80;99.90;;;;;;5069595;28;20509;-89
2022/05/04 11:04:24;;;;;;;23.42;4.80;;;18.80;99.90;;;;;;5070447;28;20738;-86
2022/05/04 11:07:02;;;;;;;23.30;5.03;;;18.80;99.90;;;;;;5070076;28;20390;-81
2022/05/04 11:09:37;;;;;;;26.92;4.68;;;18.90;99.90;;;;;;5069912;28;20388;-87
2022/05/04 11:12:10;;;;;;;25.85;4.72;;;18.80;99.90;;;;;;5070323;28;20474;-86
2022/05/04 11:14:38;;;;;;;23.40;5.00;;;18.70;99.90;;;;;;5069379;28;20468;-84
2022/05/04 11:17:16;;;;;;;41.05;19.02;;;18.70;99.90;;;;;;5069962;28;20382;-85
2022/05/04 11:19:45;;;;;;;28.27;14.40;;;18.70;99.90;;;;;;5063928;28;20389;-83
2022/05/04 11:22:13;;;;;;;32.08;9.75;;;18.80;99.90;;;;;;5069359;28;20444;-83
2022/05/04 11:24:41;;;;;;;18.77;7.60;;;18.80;99.90;;;;;;5070351;28;20463;-85
2022/05/04 11:27:08;;;;;;;16.60;5.40;;;18.70;99.90;;;;;;5070743;28;20383;-88
2022/05/04 11:29:35;;;;;;;16.52;5.60;;;18.60;99.90;;;;;;5070741;28;20363;-89
2022/05/04 11:32:04;;;;;;;17.95;4.97;;;18.60;99.90;;;;;;5070574;28;20382;-88
2022/05/04 11:34:37;;;;;;;16.20;5.25;;;18.60;99.90;;;;;;5070373;28;20410;-87
2022/05/04 11:37:09;;;;;;;15.38;5.28;;;18.50;99.90;;;;;;5070055;28;20933;-89
2022/05/04 11:39:38;;;;;;;20.13;5.15;;;18.50;99.90;;;;;;5070306;28;20366;-88
2022/05/04 11:42:08;;;;;;;14.40;4.90;;;18.50;99.90;;;;;;5069100;28;20429;-90
2022/05/04 11:44:35;;;;;;;15.77;5.13;;;18.50;99.90;;;;;;5069716;28;20393;-84
2022/05/04 11:47:04;;;;;;;17.45;4.88;;;18.50;99.90;;;;;;5069978;28;20381;-89
2022/05/04 11:49:36;;;;;;;15.50;4.72;;;18.50;99.90;;;;;;5069927;28;20382;-88
2022/05/04 11:52:06;;;;;;;13.38;4.70;;;18.50;99.90;;;;;;5077239;28;20370;-86
2022/05/04 11:54:36;;;;;;;13.82;4.60;;;18.40;99.90;;;;;;5071720;28;20373;-88
2022/05/04 11:57:12;;;;;;;13.38;4.65;;;18.40;99.90;;;;;;5069645;28;20401;-83
2022/05/04 11:59:39;;;;;;;17.08;5.10;;;18.40;99.90;;;;;;5071195;28;20378;-84
2022/05/04 12:02:07;;;;;;;10.93;4.55;;;18.40;99.90;;;;;;5069326;28;20375;-90
2022/05/04 12:04:35;;;;;;;13.00;4.82;;;18.40;99.90;;;;;;5070016;28;20410;-83
2022/05/04 12:07:03;;;;;;;17.15;5.25;;;18.40;99.90;;;;;;5074025;28;20477;-83
2022/05/04 12:09:31;;;;;;;16.75;5.47;;;18.40;99.90;;;;;;5069391;28;20431;-85
2022/05/04 12:11:58;;;;;;;11.60;4.50;;;18.30;99.90;;;;;;5069483;28;20390;-86
2022/05/04 12:14:27;;;;;;;12.77;4.93;;;18.30;99.90;;;;;;5069543;28;20370;-85
2022/05/04 12:16:54;;;;;;;13.35;4.70;;;18.40;99.90;;;;;;5068760;28;20894;-83
2022/05/04 12:19:22;;;;;;;12.02;4.80;;;18.30;99.90;;;;;;5069286;28;20465;-89
2022/05/04 12:21:52;;;;;;;12.13;4.97;;;18.30;99.90;;;;;;5070417;28;20737;-86
2022/05/04 12:24:21;;;;;;;13.50;4.90;;;18.30;99.90;;;;;;5071945;28;20430;-82
2022/05/04 12:26:48;;;;;;;14.88;5.07;;;18.30;99.90;;;;;;5073325;28;20424;-87
2022/05/04 12:34:46;;;;;;;12.75;4.90;;;18.10;99.90;;;;;;5068903;28;20447;-85
2022/05/04 12:37:14;;;;;;;13.65;4.60;;;18.00;99.90;;;;;;5069326;28;20412;-85
2022/05/04 12:39:44;;;;;;;12.00;4.40;;;17.90;99.90;;;;;;5068187;28;20385;-86
2022/05/04 12:42:17;;;;;;;15.65;4.65;;;17.90;99.90;;;;;;5068584;28;20860;-87
2022/05/04 12:44:50;;;;;;;17.40;4.78;;;17.90;99.90;;;;;;5067858;28;20400;-82
2022/05/04 12:47:18;;;;;;;9.60;4.32;;;17.90;99.90;;;;;;5066973;28;20410;-88
2022/05/04 12:49:47;;;;;;;13.53;4.80;;;17.90;99.90;;;;;;5068709;28;20370;-85
2022/05/04 12:52:15;;;;;;;11.98;4.57;;;17.90;99.90;;;;;;5068499;28;20382;-82
2022/05/04 12:54:43;;;;;;;15.55;4.85;;;17.80;99.90;;;;;;5068327;28;20428;-83
2022/05/04 12:57:10;;;;;;;12.02;5.00;;;17.80;99.90;;;;;;5068471;28;20854;-81
2022/05/04 12:59:38;;;;;;;9.68;4.57;;;17.80;99.90;;;;;;5067472;28;20903;-83
2022/05/04 13:02:05;;;;;;;11.95;4.80;;;17.80;99.90;;;;;;5068253;28;20802;-85
2022/05/04 13:04:32;;;;;;;9.35;4.70;;;17.80;99.90;;;;;;5068152;28;20907;-87
2022/05/04 13:06:59;;;;;;;11.18;4.75;;;17.80;99.90;;;;;;5068189;28;20402;-81
2022/05/04 13:09:28;;;;;;;10.32;4.80;;;17.70;99.90;;;;;;5068262;28;20881;-87
2022/05/04 13:11:55;;;;;;;9.85;4.50;;;17.70;99.90;;;;;;5067718;28;20763;-87
2022/05/04 13:14:22;;;;;;;8.75;4.57;;;17.70;99.90;;;;;;5066782;28;20749;-87
2022/05/04 13:16:49;;;;;;;12.63;5.07;;;17.70;99.90;;;;;;5067731;28;20401;-83
2022/05/04 13:19:17;;;;;;;13.02;5.40;;;17.70;99.90;;;;;;5067692;28;20866;-84
2022/05/04 13:21:44;;;;;;;13.85;6.40;;;17.80;99.90;;;;;;5067708;28;20394;-87
2022/05/04 13:24:10;;;;;;;15.85;6.65;;;17.70;99.90;;;;;;5067702;28;20397;-86